< < Back
Terminal Aerodrome Forecast


Current Version              Previous Versions:   1  2  3  4  5  6  7  8  9  

Terminal Aerodrome Forecast

073
FTUS44 KOHX 281740
TAFCSV
TAF
KCSV 281740Z 2818/2918 17007KT P6SM BKN150
     FM290000 VRB03KT P6SM SCT100 BKN250
     FM290900 00000KT 4SM BR SCT100 SCT250
     FM291100 00000KT 2SM BR BKN040
     FM291400 26005KT P6SM VCSH BKN035=

Latest METAR

157
SAUS70 KWBC 282200 RRL
MTRCSV
METAR KCSV 282153Z AUTO VRB05KT 10SM SCT060 27/15 A3014 RMK AO2 SLP184
T02720150


USA.gov is the U.S. government's official web portal to all federal, state and local government web resources and services.